Time;durP1;ratioP1;P1;durP2;ratioP2;P2;SDS_P1;SDS_P2;PMS_P1;PMS_P2;Temp;Humidity;BMP_temperature;BMP_pressure;BME280_temperature;BME280_humidity;BME280_pressure;Samples;Min_cycle;Max_cycle;Signal;HPM_P1;HPM_P2
2022/07/02 00:00:23;;;;;;;1.52;1.40;;;;;;;16.27;85.93;101102.98;1671773;84;26476;-75
2022/07/02 00:02:53;;;;;;;2.05;0.80;;;;;;;16.24;85.72;101085.97;1665663;83;98684;-75
2022/07/02 00:05:22;;;;;;;1.82;1.07;;;;;;;16.29;85.68;101072.17;1684941;83;28069;-75
2022/07/02 00:07:50;;;;;;;4.92;1.07;;;;;;;16.29;85.54;101065.41;1684781;82;98773;-75
2022/07/02 00:10:18;;;;;;;2.42;0.90;;;;;;;16.27;85.27;101088.97;1685166;83;26032;-76
2022/07/02 00:12:45;;;;;;;4.97;1.05;;;;;;;16.22;85.06;101086.55;1680346;82;25731;-74
2022/07/02 00:15:12;;;;;;;4.87;1.20;;;;;;;16.22;84.98;101100.55;1685701;83;98688;-77
2022/07/02 00:17:39;;;;;;;0.80;0.80;;;;;;;16.20;84.82;101094.36;1678909;83;27338;-77
2022/07/02 00:20:07;;;;;;;3.40;0.80;;;;;;;16.19;84.68;101102.95;1686240;82;98644;-81
2022/07/02 00:22:33;;;;;;;4.22;1.05;;;;;;;16.18;84.48;101110.68;1688827;83;26162;-75
2022/07/02 00:25:01;;;;;;;6.80;1.00;;;;;;;16.11;84.22;101117.41;1681207;82;26393;-74
2022/07/02 00:27:29;;;;;;;3.65;0.90;;;;;;;16.07;84.18;101105.52;1652644;85;98556;-75
2022/07/02 00:30:02;;;;;;;2.22;0.80;;;;;;;16.04;84.11;101119.21;1690590;83;28249;-75
2022/07/02 00:32:32;;;;;;;3.80;0.53;;;;;;;16.02;84.02;101119.30;1683596;83;98787;-76
2022/07/02 00:35:02;;;;;;;6.08;1.10;;;;;;;16.02;83.91;101130.11;1687622;83;25844;-76
2022/07/02 00:37:30;;;;;;;1.73;0.77;;;;;;;16.00;83.87;101127.11;1681825;83;98864;-76
2022/07/02 00:39:57;;;;;;;7.60;0.80;;;;;;;15.98;83.81;101116.38;1686084;82;25776;-75
2022/07/02 00:42:26;;;;;;;1.57;0.60;;;;;;;15.97;83.85;101128.64;1683941;83;27480;-75
2022/07/02 00:44:55;;;;;;;2.08;0.82;;;;;;;15.95;83.78;101122.45;1680627;83;98744;-75
2022/07/02 00:47:25;;;;;;;4.45;0.88;;;;;;;15.96;83.72;101114.73;1692670;83;26382;-76
2022/07/02 00:49:51;;;;;;;3.35;1.35;;;;;;;15.96;83.67;101118.30;1687428;83;98911;-76
2022/07/02 00:52:17;;;;;;;6.17;1.60;;;;;;;15.96;83.59;101116.95;1668536;83;25865;-77
2022/07/02 00:54:43;;;;;;;2.83;1.00;;;;;;;15.94;83.58;101112.59;1653967;85;27423;-76
2022/07/02 00:57:09;;;;;;;2.37;1.00;;;;;;;15.91;83.60;101120.41;1655769;85;98648;-76
2022/07/02 00:59:35;;;;;;;0.93;0.70;;;;;;;15.89;83.56;101116.92;1657338;85;25886;-76
2022/07/02 01:02:03;;;;;;;6.20;0.88;;;;;;;15.90;83.53;101119.53;1662837;84;98700;-76
2022/07/02 01:04:32;;;;;;;1.40;0.70;;;;;;;15.92;83.66;101122.15;1675131;84;25821;-76
2022/07/02 01:07:04;;;;;;;2.55;0.65;;;;;;;15.89;83.61;101128.60;1679525;84;28330;-76
2022/07/02 01:12:24;;;;;;;2.05;0.50;;;;;;;15.87;83.52;101117.48;1656501;84;25823;-76
2022/07/02 01:14:52;;;;;;;3.87;0.80;;;;;;;15.93;83.46;101114.91;1651686;85;98761;-76
2022/07/02 01:17:18;;;;;;;2.55;0.62;;;;;;;15.93;83.39;101121.67;1653103;84;25815;-75
2022/07/02 01:19:44;;;;;;;1.67;0.65;;;;;;;15.94;83.36;101128.34;1661678;84;98893;-75
2022/07/02 01:22:34;;;;;;;0.90;0.37;;;;;;;15.97;83.36;101144.86;1676471;84;25835;-75
2022/07/02 01:25:00;;;;;;;2.35;0.55;;;;;;;15.97;83.27;101144.86;1651021;84;26003;-76
2022/07/02 01:27:26;;;;;;;4.10;0.65;;;;;;;15.93;83.32;101151.41;1652172;84;98519;-76
2022/07/02 01:29:52;;;;;;;1.20;0.40;;;;;;;15.90;83.37;101152.45;1655617;85;25981;-77
2022/07/02 01:32:18;;;;;;;4.25;0.90;;;;;;;15.83;83.42;101149.70;1647482;83;98655;-76
2022/07/02 01:34:48;;;;;;;2.45;0.60;;;;;;;15.82;83.33;101148.84;1629929;86;25835;-76
2022/07/02 01:37:18;;;;;;;1.87;0.60;;;;;;;15.80;83.32;101154.81;1629503;86;98870;-77
2022/07/02 01:39:46;;;;;;;1.90;0.53;;;;;;;15.78;83.32;101162.13;1628832;85;26752;-77
2022/07/02 01:42:15;;;;;;;3.00;0.70;;;;;;;15.73;83.25;101165.58;1625779;85;25800;-74
2022/07/02 01:44:43;;;;;;;4.00;0.60;;;;;;;15.74;83.48;101186.72;1652438;85;98707;-75
2022/07/02 01:47:11;;;;;;;2.10;0.60;;;;;;;15.61;83.39;101178.91;1657974;84;25996;-76
2022/07/02 01:49:38;;;;;;;2.22;0.60;;;;;;;15.54;83.50;101191.88;1649543;85;98838;-74
2022/07/02 01:52:06;;;;;;;0.33;0.33;;;;;;;15.47;83.50;101192.70;1653681;84;26358;-75
2022/07/02 01:54:33;;;;;;;3.92;0.50;;;;;;;15.40;83.63;101207.98;1657433;84;25887;-75
2022/07/02 01:57:01;;;;;;;4.37;0.50;;;;;;;15.34;83.69;101211.01;1682354;83;98643;-76
2022/07/02 01:59:28;;;;;;;3.10;0.70;;;;;;;15.31;83.83;101220.63;1689042;82;25967;-75
2022/07/02 02:01:54;;;;;;;3.42;0.60;;;;;;;15.25;83.77;101219.13;1687743;82;98825;-75
2022/07/02 02:04:20;;;;;;;8.23;0.65;;;;;;;15.18;83.97;101214.53;1695568;83;26366;-75
2022/07/02 02:06:46;;;;;;;3.70;0.70;;;;;;;15.11;84.06;101236.54;1687717;83;26683;-75
2022/07/02 02:09:12;;;;;;;4.28;0.57;;;;;;;15.05;84.18;101220.66;1685027;84;98675;-76
2022/07/02 02:11:39;;;;;;;2.75;0.55;;;;;;;15.03;84.28;101217.17;1692017;83;26586;-75
2022/07/02 02:14:05;;;;;;;5.15;0.60;;;;;;;15.02;84.32;101224.39;1688908;82;98592;-76
2022/07/02 02:16:32;;;;;;;1.25;0.62;;;;;;;14.98;84.41;101235.44;1660920;83;25874;-75
2022/07/02 02:19:00;;;;;;;0.30;0.30;;;;;;;14.93;84.44;101233.85;1680874;83;25765;-75
2022/07/02 02:21:29;;;;;;;0.30;0.30;;;;;;;14.92;84.56;101237.50;1649404;85;98454;-75
2022/07/02 02:23:57;;;;;;;3.27;0.50;;;;;;;14.92;84.56;101246.08;1658371;83;25869;-74
2022/07/02 02:26:23;;;;;;;0.78;0.42;;;;;;;14.90;84.54;101243.94;1655482;83;98558;-74
2022/07/02 02:28:51;;;;;;;1.15;0.80;;;;;;;14.89;84.65;101255.68;1656611;84;25790;-74
2022/07/02 02:31:17;;;;;;;0.85;0.50;;;;;;;14.87;84.74;101247.66;1656694;83;98890;-74
2022/07/02 02:33:43;;;;;;;0.70;0.60;;;;;;;14.85;84.96;101249.57;1651321;84;27058;-74
2022/07/02 02:36:08;;;;;;;2.05;0.80;;;;;;;14.83;85.10;101247.90;1658530;84;25803;-74
2022/07/02 02:38:37;;;;;;;2.92;1.00;;;;;;;14.82;85.51;101256.95;1649583;84;98650;-74
2022/07/02 02:41:06;;;;;;;2.08;0.60;;;;;;;14.81;85.37;101264.65;1667497;84;26461;-74
2022/07/02 02:43:37;;;;;;;2.40;0.57;;;;;;;14.83;85.46;101264.09;1631459;84;98814;-74
2022/07/02 02:46:04;;;;;;;;;;;;;;;14.86;85.65;101269.34;1691862;82;28340;-74
2022/07/02 02:48:31;;;;;;;2.20;0.95;;;;;;;14.86;85.67;101282.35;1691006;82;26275;-74
2022/07/02 02:50:58;;;;;;;1.77;0.85;;;;;;;14.85;85.72;101273.86;1664256;82;98666;-74
2022/07/02 02:53:24;;;;;;;3.22;1.05;;;;;;;14.87;85.77;101276.48;1655935;85;26324;-74
2022/07/02 02:55:51;;;;;;;2.25;0.93;;;;;;;14.88;85.76;101276.88;1667239;83;98875;-74
2022/07/02 02:58:18;;;;;;;4.92;0.90;;;;;;;14.89;85.68;101275.92;1688339;83;28063;-74
2022/07/02 03:00:44;;;;;;;1.22;1.12;;;;;;;14.88;85.79;101274.17;1693339;83;26010;-74
2022/07/02 03:03:10;;;;;;;3.17;0.90;;;;;;;14.87;85.85;101281.41;1694625;82;98542;-74
2022/07/02 03:05:36;;;;;;;1.42;0.90;;;;;;;14.87;85.85;101285.45;1694531;82;26005;-78
2022/07/02 03:08:02;;;;;;;2.15;0.75;;;;;;;14.87;85.90;101280.53;1660879;84;98664;-77
2022/07/02 03:10:28;;;;;;;2.15;0.95;;;;;;;14.87;85.97;101284.58;1673703;84;27402;-77
2022/07/02 03:12:54;;;;;;;1.87;0.90;;;;;;;14.88;85.99;101286.33;1669462;84;25811;-77
2022/07/02 03:15:19;;;;;;;5.20;1.17;;;;;;;14.90;86.00;101293.87;1674185;84;98650;-78
2022/07/02 03:17:45;;;;;;;4.40;0.80;;;;;;;14.89;85.99;101284.90;1696270;82;25875;-78
2022/07/02 03:20:12;;;;;;;5.42;1.75;;;;;;;14.88;86.15;101287.20;1692727;83;98441;-78
2022/07/02 03:22:38;;;;;;;3.42;1.12;;;;;;;14.89;86.31;101291.64;1694489;83;27450;-79
2022/07/02 03:25:05;;;;;;;3.17;0.85;;;;;;;14.89;86.36;101289.42;1697071;82;25771;-78
2022/07/02 03:27:30;;;;;;;3.45;1.00;;;;;;;14.88;86.41;101294.42;1691759;82;99149;-79
2022/07/02 03:29:57;;;;;;;2.15;1.05;;;;;;;14.91;86.54;101287.52;1676790;84;25904;-78
2022/07/02 03:32:28;;;;;;;3.67;1.17;;;;;;;14.91;86.58;101301.02;1693539;83;98616;-78
2022/07/02 03:34:55;;;;;;;1.22;1.10;;;;;;;14.92;86.63;101301.41;1677246;84;28073;-78
2022/07/02 03:37:25;;;;;;;2.95;1.07;;;;;;;14.94;86.61;101302.20;1699088;82;98742;-79
2022/07/02 03:39:50;;;;;;;4.33;0.80;;;;;;;14.93;86.61;101302.69;1699751;83;25831;-78
2022/07/02 03:42:15;;;;;;;2.12;1.00;;;;;;;14.96;86.51;101310.23;1655282;84;26425;-78
2022/07/02 03:44:41;;;;;;;2.35;1.10;;;;;;;14.97;86.36;101314.20;1692107;82;98584;-78
2022/07/02 03:47:07;;;;;;;2.70;0.98;;;;;;;15.01;86.24;101315.79;1695115;83;27412;-79
2022/07/02 03:49:33;;;;;;;4.03;1.05;;;;;;;15.04;86.12;101318.34;1692055;83;98767;-78
2022/07/02 03:51:59;;;;;;;3.35;1.00;;;;;;;15.05;85.98;101329.53;1696119;82;26438;-78
2022/07/02 03:54:24;;;;;;;3.62;1.17;;;;;;;15.07;85.88;101334.38;1675345;83;26293;-78
2022/07/02 03:56:50;;;;;;;2.10;1.20;;;;;;;15.10;85.83;101332.00;1673913;84;98654;-78
2022/07/02 03:59:16;;;;;;;2.05;1.10;;;;;;;15.11;85.70;101338.67;1667869;83;27503;-77
2022/07/02 04:01:42;;;;;;;4.25;1.52;;;;;;;15.10;85.67;101341.45;1691658;83;98841;-77
2022/07/02 04:04:08;;;;;;;2.27;1.40;;;;;;;15.09;85.56;101331.59;1693378;82;25812;-78
2022/07/02 04:06:34;;;;;;;2.10;1.35;;;;;;;15.06;85.54;101332.63;1694780;83;25795;-78
2022/07/02 04:09:02;;;;;;;4.35;1.82;;;;;;;15.06;85.57;101333.98;1693492;83;98721;-79
2022/07/02 04:11:28;;;;;;;2.47;1.70;;;;;;;15.06;85.54;101342.55;1700098;82;27389;-78
2022/07/02 04:13:53;;;;;;;6.83;1.80;;;;;;;15.02;85.39;101355.34;1698299;83;98813;-78
2022/07/02 04:16:20;;;;;;;2.12;1.90;;;;;;;15.02;85.37;101352.63;1696594;82;25725;-78
2022/07/02 04:18:45;;;;;;;5.40;2.30;;;;;;;15.01;85.29;101356.28;1696500;82;26369;-78
2022/07/02 04:21:11;;;;;;;6.42;1.95;;;;;;;14.98;85.16;101359.14;1696057;83;98584;-77
2022/07/02 04:23:37;;;;;;;6.62;2.10;;;;;;;14.97;85.15;101369.55;1694391;83;27461;-78
2022/07/02 04:26:04;;;;;;;7.10;2.00;;;;;;;14.97;85.15;101372.23;1692867;83;98602;-78
2022/07/02 04:28:30;;;;;;;5.72;1.80;;;;;;;14.97;85.14;101375.42;1698807;82;25733;-78
2022/07/02 04:30:56;;;;;;;10.38;1.92;;;;;;;14.94;85.18;101368.34;1694049;82;28186;-78
2022/07/02 04:33:22;;;;;;;3.05;1.50;;;;;;;14.92;85.05;101374.30;1692965;82;98756;-77
2022/07/02 04:35:48;;;;;;;3.30;1.45;;;;;;;14.92;84.99;101380.57;1697117;82;27407;-78
2022/07/02 04:38:14;;;;;;;3.37;1.70;;;;;;;14.92;84.95;101392.72;1691795;83;98613;-77
2022/07/02 04:40:41;;;;;;;6.35;1.70;;;;;;;14.94;84.85;101390.81;1696128;83;26013;-76
2022/07/02 04:43:07;;;;;;;9.55;1.40;;;;;;;14.98;84.79;101392.02;1693160;83;25886;-76
2022/07/02 04:45:32;;;;;;;3.70;1.55;;;;;;;14.98;84.53;101405.52;1675989;83;98407;-77
2022/07/02 04:47:59;;;;;;;2.15;1.20;;;;;;;14.97;84.46;101395.19;1675450;84;28012;-76
2022/07/02 04:50:25;;;;;;;5.58;1.40;;;;;;;14.96;84.27;101399.31;1690597;83;98743;-77
2022/07/02 04:52:51;;;;;;;8.50;1.42;;;;;;;14.98;84.19;101405.52;1691373;82;25560;-75
2022/07/02 04:55:16;;;;;;;2.98;1.17;;;;;;;15.01;84.05;101401.31;1686803;83;98916;-74
2022/07/02 04:57:42;;;;;;;8.40;1.40;;;;;;;15.05;84.00;101411.88;1689319;83;25953;-75
2022/07/02 05:00:11;;;;;;;5.55;2.12;;;;;;;15.11;83.86;101411.58;1691769;82;27492;-75
2022/07/02 05:02:37;;;;;;;5.97;1.42;;;;;;;15.18;83.65;101407.62;1690099;83;98581;-75
2022/07/02 05:05:04;;;;;;;3.55;1.30;;;;;;;15.25;83.62;101424.39;1692435;82;25818;-75
2022/07/02 05:07:30;;;;;;;5.20;1.47;;;;;;;15.36;83.57;101418.44;1691438;82;98849;-75
2022/07/02 05:10:01;;;;;;;3.87;1.30;;;;;;;15.41;83.32;101409.63;1693105;83;26533;-75
2022/07/02 05:12:24;;;;;;;7.58;1.57;;;;;;;15.50;83.26;101415.91;1691823;81;27345;-76
2022/07/02 05:14:51;;;;;;;3.50;1.40;;;;;;;15.55;82.89;101412.49;1691414;83;98700;-75
2022/07/02 05:17:18;;;;;;;7.37;1.75;;;;;;;15.53;82.56;101418.45;1691030;83;25962;-75
2022/07/02 05:19:45;;;;;;;6.10;1.20;;;;;;;15.61;82.61;101435.14;1689913;83;98838;-76
2022/07/02 05:22:11;;;;;;;5.80;1.20;;;;;;;15.64;82.39;101438.17;1695192;83;25736;-76
2022/07/02 05:24:38;;;;;;;2.45;1.05;;;;;;;15.67;82.02;101438.00;1695363;82;27406;-76
2022/07/02 05:27:05;;;;;;;5.80;1.40;;;;;;;15.67;81.83;101441.59;1692955;83;98722;-76
2022/07/02 05:29:31;;;;;;;4.10;1.15;;;;;;;15.71;81.70;101441.83;1692935;83;26395;-75
2022/07/02 05:31:57;;;;;;;3.62;1.10;;;;;;;15.72;81.45;101440.87;1679196;83;98623;-76
2022/07/02 05:34:23;;;;;;;1.50;0.75;;;;;;;15.79;81.11;101444.13;1652867;85;26372;-76
2022/07/02 05:36:49;;;;;;;3.40;1.32;;;;;;;15.79;80.72;101438.72;1681550;83;29033;-76
2022/07/02 05:39:15;;;;;;;3.22;1.37;;;;;;;15.83;80.57;101441.19;1688917;83;98723;-76
2022/07/02 05:41:42;;;;;;;3.15;1.42;;;;;;;15.91;80.47;101440.78;1665477;84;25781;-76
2022/07/02 05:44:07;;;;;;;6.12;1.40;;;;;;;16.02;80.36;101449.67;1693874;83;98671;-77
2022/07/02 05:46:33;;;;;;;3.62;1.00;;;;;;;16.11;80.21;101441.95;1687701;83;25902;-80
2022/07/02 05:48:59;;;;;;;3.37;0.80;;;;;;;16.21;79.93;101443.67;1665366;84;27471;-75
2022/07/02 05:51:25;;;;;;;6.25;1.45;;;;;;;16.25;79.50;101446.61;1698000;82;98485;-75
2022/07/02 05:53:51;;;;;;;4.87;0.95;;;;;;;16.28;79.42;101453.69;1699492;81;25815;-78
2022/07/02 05:56:17;;;;;;;4.15;1.47;;;;;;;16.30;79.04;101453.13;1655811;83;98640;-77
2022/07/02 05:58:42;;;;;;;8.38;1.07;;;;;;;16.31;78.89;101455.75;1639205;86;25495;-75
2022/07/02 06:01:08;;;;;;;2.62;0.90;;;;;;;16.29;78.46;101456.31;1665333;84;28167;-77
2022/07/02 06:03:34;;;;;;;2.80;1.12;;;;;;;16.28;78.17;101449.63;1633315;86;98381;-76
2022/07/02 06:08:44;;;;;;;3.95;0.98;;;;;;;16.25;77.47;101465.55;1665200;84;98725;-78
2022/07/02 06:11:11;;;;;;;3.58;0.98;;;;;;;16.23;77.43;101465.62;1635412;86;25820;-79
2022/07/02 06:13:39;;;;;;;5.20;1.10;;;;;;;16.22;76.95;101472.48;1634344;86;98797;-78
2022/07/02 06:16:05;;;;;;;6.62;1.82;;;;;;;16.19;77.10;101469.94;1668769;84;25789;-74
2022/07/02 06:18:31;;;;;;;2.10;1.02;;;;;;;16.22;76.94;101474.70;1656222;84;25827;-73
2022/07/02 06:20:57;;;;;;;4.58;1.07;;;;;;;16.18;76.69;101474.47;1663763;84;98704;-75
2022/07/02 06:23:23;;;;;;;4.60;1.47;;;;;;;16.15;76.68;101477.34;1692767;83;26413;-76
2022/07/02 06:25:50;;;;;;;6.55;1.17;;;;;;;16.09;76.30;101477.66;1652915;84;98787;-79
2022/07/02 06:28:18;;;;;;;10.45;1.60;;;;;;;16.03;76.39;101482.05;1654417;84;25827;-76
2022/07/02 06:30:44;;;;;;;4.03;1.00;;;;;;;16.03;76.35;101481.17;1661929;84;25820;-76
2022/07/02 06:33:10;;;;;;;4.78;1.17;;;;;;;16.02;76.45;101480.77;1658089;83;99247;-78
2022/07/02 06:35:36;;;;;;;4.20;1.37;;;;;;;16.03;76.29;101481.17;1692641;83;25297;-76
2022/07/02 06:38:02;;;;;;;6.20;1.10;;;;;;;16.04;76.33;101477.03;1690808;83;99402;-78
2022/07/02 06:40:28;;;;;;;3.50;1.47;;;;;;;16.13;76.38;101477.02;1660185;84;26170;-77
2022/07/02 06:42:55;;;;;;;7.80;1.42;;;;;;;16.20;76.22;101482.02;1659621;84;25934;-76
2022/07/02 06:45:21;;;;;;;7.12;1.35;;;;;;;16.26;76.16;101486.23;1685197;83;98781;-77
2022/07/02 06:47:48;;;;;;;4.58;1.55;;;;;;;16.34;76.12;101488.05;1683595;83;25579;-78
2022/07/02 06:50:18;;;;;;;4.90;1.22;;;;;;;16.46;76.01;101491.92;1669952;83;98998;-77
2022/07/02 06:52:45;;;;;;;2.65;1.12;;;;;;;16.54;75.47;101489.20;1693009;82;26388;-80
2022/07/02 06:55:13;;;;;;;5.25;1.20;;;;;;;16.66;75.46;101492.22;1670521;83;25814;-76
2022/07/02 06:57:40;;;;;;;5.08;2.27;;;;;;;16.76;75.38;101490.27;1659009;84;99203;-75
2022/07/02 07:00:07;;;;;;;4.20;1.15;;;;;;;16.85;74.82;101494.30;1653034;84;25798;-76
2022/07/02 07:02:33;;;;;;;6.67;0.90;;;;;;;16.93;74.67;101497.45;1656599;83;98721;-77
2022/07/02 07:04:59;;;;;;;2.12;0.98;;;;;;;17.07;74.70;101502.09;1675374;83;25941;-79
2022/07/02 07:07:27;;;;;;;2.92;0.85;;;;;;;17.23;74.28;101497.55;1671294;84;98918;-78
2022/07/02 07:09:53;;;;;;;5.15;0.98;;;;;;;17.31;73.54;101499.81;1680222;83;26453;-77
2022/07/02 07:12:20;;;;;;;5.78;0.90;;;;;;;17.38;73.38;101513.40;1674446;83;25940;-75
2022/07/02 07:14:45;;;;;;;2.90;0.80;;;;;;;17.42;72.64;101513.13;1672607;83;98756;-80
2022/07/02 07:17:11;;;;;;;2.87;0.93;;;;;;;17.49;71.86;101524.49;1669853;82;25767;-81
2022/07/02 07:19:37;;;;;;;2.87;0.95;;;;;;;17.44;70.74;101515.27;1690479;83;98877;-80
2022/07/02 07:22:03;;;;;;;2.00;1.10;;;;;;;17.41;70.70;101534.42;1692060;83;25807;-75
2022/07/02 07:24:30;;;;;;;7.28;1.10;;;;;;;17.39;70.66;101526.86;1689008;83;25767;-78
2022/07/02 07:26:59;;;;;;;6.40;1.17;;;;;;;17.41;70.48;101539.84;1692734;81;98630;-74
2022/07/02 07:29:25;;;;;;;6.75;1.87;;;;;;;17.44;70.58;101536.08;1693389;82;25920;-76
2022/07/02 07:31:51;;;;;;;3.65;0.88;;;;;;;17.51;70.46;101523.92;1689604;83;98858;-75
2022/07/02 07:34:17;;;;;;;3.15;1.02;;;;;;;17.63;70.40;101535.41;1689698;83;26286;-76
2022/07/02 07:36:42;;;;;;;5.20;1.22;;;;;;;17.69;70.07;101535.56;1694204;82;26231;-75
2022/07/02 07:39:08;;;;;;;5.12;1.20;;;;;;;17.79;69.93;101534.92;1697266;83;98681;-75
2022/07/02 07:41:35;;;;;;;1.65;1.20;;;;;;;17.93;69.88;101544.08;1695380;82;25817;-75
2022/07/02 07:44:01;;;;;;;4.83;1.27;;;;;;;18.03;69.53;101530.36;1676846;84;98935;-74
2022/07/02 07:46:27;;;;;;;1.92;1.07;;;;;;;18.10;68.06;101547.53;1677433;82;26589;-74
2022/07/02 07:48:53;;;;;;;11.18;1.67;;;;;;;18.14;67.79;101546.86;1669769;83;25919;-74
2022/07/02 07:51:19;;;;;;;4.50;1.30;;;;;;;18.23;67.60;101543.55;1662981;84;98821;-75
2022/07/02 07:53:45;;;;;;;12.90;2.10;;;;;;;18.31;67.22;101555.30;1672459;83;25808;-74
2022/07/02 07:56:18;;;;;;;6.50;1.27;;;;;;;18.33;67.11;101547.45;1669140;84;98885;-74
2022/07/02 07:58:45;;;;;;;5.67;1.40;;;;;;;18.35;66.55;101560.45;1672764;84;26539;-74
2022/07/02 08:01:11;;;;;;;6.55;1.67;;;;;;;18.37;66.04;101561.71;1673551;83;25878;-74
2022/07/02 08:03:37;;;;;;;6.35;1.52;;;;;;;18.31;65.93;101554.82;1686447;83;98792;-74
2022/07/02 08:06:05;;;;;;;7.03;1.45;;;;;;;18.31;66.25;101552.59;1693004;83;25860;-74
2022/07/02 08:08:31;;;;;;;6.72;1.80;;;;;;;18.48;66.34;101554.66;1689876;83;98694;-74
2022/07/02 08:10:57;;;;;;;7.40;1.60;;;;;;;18.66;65.65;101559.94;1694285;82;27743;-75
2022/07/02 08:13:23;;;;;;;5.05;1.90;;;;;;;18.68;64.65;101566.16;1691377;83;98999;-73
2022/07/02 08:15:48;;;;;;;4.12;1.60;;;;;;;18.68;64.65;101566.16;1691451;83;27746;-73
2022/07/02 08:18:14;;;;;;;7.40;1.70;;;;;;;18.71;65.08;101584.48;1697927;83;25495;-74
2022/07/02 08:20:40;;;;;;;3.72;1.50;;;;;;;18.74;64.73;101581.58;1675184;83;98655;-74
2022/07/02 08:23:06;;;;;;;6.42;1.55;;;;;;;18.81;64.90;101583.42;1674758;84;25874;-74
2022/07/02 08:25:32;;;;;;;11.20;1.60;;;;;;;18.92;64.64;101582.27;1673870;83;98852;-75
2022/07/02 08:27:58;;;;;;;6.00;1.75;;;;;;;19.05;64.91;101577.80;1674133;84;27474;-74
2022/07/02 08:30:24;;;;;;;9.53;2.08;;;;;;;19.23;64.65;101584.38;1689656;83;25989;-75
2022/07/02 08:32:51;;;;;;;5.83;2.00;;;;;;;19.36;63.53;101582.62;1651797;84;98689;-75
2022/07/02 08:35:18;;;;;;;6.85;1.80;;;;;;;19.45;63.80;101584.25;1659995;84;26472;-75
2022/07/02 08:37:44;;;;;;;6.47;1.70;;;;;;;19.47;62.61;101589.58;1671630;83;98676;-75
2022/07/02 08:40:11;;;;;;;8.35;1.87;;;;;;;19.47;62.61;101589.58;1689000;83;28232;-75
2022/07/02 08:42:41;;;;;;;13.75;2.10;;;;;;;19.38;62.64;101600.57;1691968;83;25862;-75
2022/07/02 08:45:11;;;;;;;9.83;2.40;;;;;;;19.31;62.37;101594.27;1693859;82;98823;-75
2022/07/02 08:47:40;;;;;;;3.90;1.92;;;;;;;19.29;62.04;101583.98;1691270;83;26026;-75
2022/07/02 08:50:09;;;;;;;7.92;1.77;;;;;;;19.22;61.21;101583.51;1690355;83;98586;-75
2022/07/02 08:52:38;;;;;;;1.77;1.22;;;;;;;19.29;61.86;101590.78;1692968;83;27391;-75
2022/07/02 08:55:05;;;;;;;6.22;1.72;;;;;;;19.29;60.42;101592.14;1695477;82;25737;-75
2022/07/02 08:57:32;;;;;;;3.00;1.67;;;;;;;19.24;59.69;101595.64;1659923;84;98618;-74
2022/07/02 08:59:58;;;;;;;8.85;2.10;;;;;;;19.30;59.87;101588.45;1665507;84;25811;-75
2022/07/02 09:02:27;;;;;;;6.85;2.05;;;;;;;19.40;59.30;101583.67;1693279;83;98581;-75
2022/07/02 09:04:56;;;;;;;5.83;2.50;;;;;;;19.51;59.64;101595.20;1663252;83;28051;-75
2022/07/02 09:07:22;;;;;;;8.58;1.75;;;;;;;19.67;59.94;101593.74;1668129;84;98909;-74
2022/07/02 09:09:49;;;;;;;5.22;1.90;;;;;;;19.71;58.95;101602.95;1695422;81;25822;-75
2022/07/02 09:12:15;;;;;;;5.55;1.70;;;;;;;19.67;59.61;101593.74;1688530;82;25919;-75
2022/07/02 09:14:43;;;;;;;2.20;1.70;;;;;;;19.65;58.98;101597.92;1684489;82;98619;-76
2022/07/02 09:17:11;;;;;;;5.45;1.80;;;;;;;19.65;59.32;101604.72;1679694;82;28019;-75
2022/07/02 09:19:39;;;;;;;4.35;1.30;;;;;;;19.58;58.72;101584.34;1687486;82;98879;-75
2022/07/02 09:22:07;;;;;;;2.50;1.72;;;;;;;19.74;58.32;101601.39;1682431;83;25960;-75
2022/07/02 09:24:37;;;;;;;9.15;1.70;;;;;;;19.90;58.74;101597.16;1686327;82;26551;-75
2022/07/02 09:27:10;;;;;;;4.55;1.50;;;;;;;20.00;59.03;101590.61;1685454;82;98715;-75
2022/07/02 09:29:52;;;;;;;2.70;1.30;;;;;;;20.19;59.23;101590.23;1681805;83;27725;-75
2022/07/02 09:32:20;;;;;;;5.60;2.30;;;;;;;20.37;59.04;101591.20;1681552;83;98638;-75
2022/07/02 09:34:51;;;;;;;6.45;1.98;;;;;;;20.41;58.49;101601.42;1678303;82;26346;-75
2022/07/02 09:37:23;;;;;;;6.03;1.75;;;;;;;20.28;58.03;101600.00;1680954;82;26292;-75
2022/07/02 09:39:52;;;;;;;7.75;1.37;;;;;;;20.07;56.89;101601.47;1679121;82;98847;-75
2022/07/02 09:42:28;;;;;;;4.10;1.52;;;;;;;19.93;57.69;101604.25;1687340;82;27486;-75
2022/07/02 09:44:55;;;;;;;5.25;1.65;;;;;;;20.02;57.92;101604.98;1680089;83;98781;-74
2022/07/02 09:47:48;;;;;;;3.22;1.62;;;;;;;20.21;58.19;101601.89;1685906;82;25766;-74
2022/07/02 09:50:12;;;;;;;3.45;1.32;;;;;;;20.33;57.19;101606.49;1681567;83;98850;-75
2022/07/02 09:52:54;;;;;;;5.28;1.32;;;;;;;20.35;57.73;101600.45;1682897;83;25789;-75
2022/07/02 09:55:29;;;;;;;7.97;1.70;;;;;;;20.47;57.49;101598.77;1686572;82;28188;-75
2022/07/02 09:58:00;;;;;;;8.13;1.67;;;;;;;20.56;56.96;101602.20;1680317;82;98489;-75
2022/07/02 10:00:31;;;;;;;9.83;1.45;;;;;;;20.56;56.27;101596.76;1685114;82;25761;-75
2022/07/02 10:02:59;;;;;;;4.00;1.32;;;;;;;20.66;56.38;101603.30;1681594;82;98775;-75
2022/07/02 10:05:31;;;;;;;4.87;2.02;;;;;;;20.89;55.99;101605.73;1683679;83;25721;-75
2022/07/02 10:08:01;;;;;;;5.08;1.47;;;;;;;21.03;55.67;101599.67;1678271;83;98861;-75
2022/07/02 10:10:38;;;;;;;4.40;1.50;;;;;;;21.00;55.01;101602.63;1683084;82;26242;-75
2022/07/02 10:13:06;;;;;;;5.50;1.35;;;;;;;21.13;54.33;101596.28;1681348;82;25814;-75
2022/07/02 10:15:37;;;;;;;5.90;1.60;;;;;;;21.14;55.07;101607.56;1683412;83;98751;-74
2022/07/02 10:18:04;;;;;;;12.82;1.92;;;;;;;21.29;55.59;101599.17;1683503;83;25810;-75
2022/07/02 10:20:31;;;;;;;6.92;1.57;;;;;;;21.51;55.72;101608.52;1682809;83;99336;-75
2022/07/02 10:23:00;;;;;;;7.25;1.70;;;;;;;21.65;55.67;101605.14;1683488;82;26072;-75
2022/07/02 10:25:27;;;;;;;3.70;1.60;;;;;;;21.74;55.13;101606.80;1682793;83;25869;-75
2022/07/02 10:27:55;;;;;;;6.42;1.82;;;;;;;21.63;54.75;101607.60;1683199;82;98490;-74
2022/07/02 10:30:24;;;;;;;3.22;1.62;;;;;;;21.39;53.68;101600.74;1686645;83;25374;-75
2022/07/02 10:32:58;;;;;;;3.65;1.52;;;;;;;21.20;53.75;101612.09;1681064;82;98728;-75
2022/07/02 10:35:24;;;;;;;11.28;1.65;;;;;;;21.02;53.98;101611.56;1687703;82;25729;-75
2022/07/02 10:37:56;;;;;;;5.53;1.37;;;;;;;20.91;54.04;101608.73;1696629;82;99026;-75
2022/07/02 10:40:22;;;;;;;8.43;1.72;;;;;;;20.88;53.99;101615.76;1696451;82;26352;-75
2022/07/02 10:42:50;;;;;;;7.10;1.70;;;;;;;20.95;54.03;101606.16;1669091;84;26345;-76
2022/07/02 10:45:22;;;;;;;2.85;1.55;;;;;;;21.11;54.09;101607.30;1695787;82;98694;-76
2022/07/02 10:48:03;;;;;;;3.12;1.37;;;;;;;21.33;53.81;101598.47;1678791;83;25909;-76
2022/07/02 10:50:41;;;;;;;3.17;1.30;;;;;;;21.52;52.90;101596.13;1680693;82;98587;-73
2022/07/02 10:53:20;;;;;;;3.85;1.30;;;;;;;21.50;51.93;101601.31;1659106;83;25801;-75
2022/07/02 10:55:58;;;;;;;3.58;1.47;;;;;;;21.42;52.46;101601.88;1680978;83;98826;-75
2022/07/02 10:58:28;;;;;;;3.30;1.65;;;;;;;21.37;52.44;101590.44;1678998;83;27501;-75
2022/07/02 11:00:56;;;;;;;10.70;2.17;;;;;;;21.31;52.17;101588.16;1678583;83;25881;-74
2022/07/02 11:03:25;;;;;;;15.98;2.85;;;;;;;21.33;52.22;101587.55;1680595;83;98825;-75
2022/07/02 11:06:04;;;;;;;6.55;1.82;;;;;;;21.44;52.42;101586.27;1681633;83;25791;-75
2022/07/02 11:08:49;;;;;;;4.08;1.57;;;;;;;21.67;52.66;101587.29;1681946;83;98620;-75
2022/07/02 11:11:29;;;;;;;6.83;1.90;;;;;;;21.92;52.91;101579.48;1684791;83;28171;-75
2022/07/02 11:13:59;;;;;;;3.45;1.90;;;;;;;22.15;52.84;101573.16;1676198;82;98912;-75
2022/07/02 11:16:29;;;;;;;4.70;1.67;;;;;;;22.23;52.49;101577.54;1680846;82;25964;-75
2022/07/02 11:19:02;;;;;;;7.05;1.80;;;;;;;22.22;52.77;101578.53;1700416;83;25781;-75
2022/07/02 11:21:27;;;;;;;3.85;1.77;;;;;;;22.23;52.49;101561.65;1693475;83;98646;-75
2022/07/02 11:23:53;;;;;;;4.87;1.50;;;;;;;22.36;52.47;101562.44;1691919;83;27471;-75
2022/07/02 11:26:23;;;;;;;7.20;1.92;;;;;;;22.63;52.68;101558.02;1692498;83;98831;-75
2022/07/02 11:28:49;;;;;;;4.97;1.52;;;;;;;22.85;51.96;101566.28;1699142;83;25724;-75
2022/07/02 11:31:18;;;;;;;5.42;1.67;;;;;;;23.01;52.09;101564.55;1694325;83;26498;-75